sensor_id;sensor_type;location;lat;lon;timestamp;P1;durP1;ratioP1;P2;durP2;ratioP2
2928;SDS011;1474;51.460;7.150;2023-03-13T00:03:43;9.15;;;1.60;;
2928;SDS011;1474;51.460;7.150;2023-03-13T00:06:09;9.13;;;1.45;;
2928;SDS011;1474;51.460;7.150;2023-03-13T00:08:35;8.82;;;1.85;;
2928;SDS011;1474;51.460;7.150;2023-03-13T00:11:07;8.07;;;2.25;;
2928;SDS011;1474;51.460;7.150;2023-03-13T00:13:34;5.28;;;2.30;;
2928;SDS011;1474;51.460;7.150;2023-03-13T00:16:06;9.02;;;2.15;;
2928;SDS011;1474;51.460;7.150;2023-03-13T00:18:38;7.85;;;1.98;;
2928;SDS011;1474;51.460;7.150;2023-03-13T00:21:09;7.15;;;2.72;;
2928;SDS011;1474;51.460;7.150;2023-03-13T00:23:36;9.25;;;1.83;;
2928;SDS011;1474;51.460;7.150;2023-03-13T00:26:05;7.78;;;1.40;;
2928;SDS011;1474;51.460;7.150;2023-03-13T00:28:34;6.03;;;2.23;;
2928;SDS011;1474;51.460;7.150;2023-03-13T00:33:35;4.82;;;1.30;;
2928;SDS011;1474;51.460;7.150;2023-03-13T00:36:07;8.70;;;2.10;;
2928;SDS011;1474;51.460;7.150;2023-03-13T00:38:37;9.00;;;1.92;;
2928;SDS011;1474;51.460;7.150;2023-03-13T00:41:11;8.45;;;1.52;;
2928;SDS011;1474;51.460;7.150;2023-03-13T00:43:41;6.82;;;2.15;;
2928;SDS011;1474;51.460;7.150;2023-03-13T00:46:09;5.22;;;2.10;;
2928;SDS011;1474;51.460;7.150;2023-03-13T00:48:37;9.27;;;2.45;;
2928;SDS011;1474;51.460;7.150;2023-03-13T00:51:05;5.95;;;1.67;;
2928;SDS011;1474;51.460;7.150;2023-03-13T00:53:33;9.60;;;1.92;;
2928;SDS011;1474;51.460;7.150;2023-03-13T00:56:01;6.72;;;1.60;;
2928;SDS011;1474;51.460;7.150;2023-03-13T00:58:30;2.70;;;0.90;;
2928;SDS011;1474;51.460;7.150;2023-03-13T01:01:05;10.23;;;1.70;;
2928;SDS011;1474;51.460;7.150;2023-03-13T01:03:33;7.25;;;1.80;;
2928;SDS011;1474;51.460;7.150;2023-03-13T01:06:00;10.93;;;2.05;;
2928;SDS011;1474;51.460;7.150;2023-03-13T01:08:28;9.35;;;1.73;;
2928;SDS011;1474;51.460;7.150;2023-03-13T01:11:01;15.07;;;2.50;;
2928;SDS011;1474;51.460;7.150;2023-03-13T01:13:29;12.93;;;2.30;;
2928;SDS011;1474;51.460;7.150;2023-03-13T01:15:57;7.55;;;1.33;;
2928;SDS011;1474;51.460;7.150;2023-03-13T01:18:30;12.52;;;1.63;;
2928;SDS011;1474;51.460;7.150;2023-03-13T01:20:56;12.43;;;2.28;;
2928;SDS011;1474;51.460;7.150;2023-03-13T01:23:22;12.60;;;2.30;;
2928;SDS011;1474;51.460;7.150;2023-03-13T01:25:49;6.30;;;1.55;;
2928;SDS011;1474;51.460;7.150;2023-03-13T01:28:16;6.97;;;2.15;;
2928;SDS011;1474;51.460;7.150;2023-03-13T01:30:43;10.05;;;2.00;;
2928;SDS011;1474;51.460;7.150;2023-03-13T01:33:10;8.70;;;1.98;;
2928;SDS011;1474;51.460;7.150;2023-03-13T01:35:36;8.95;;;1.73;;
2928;SDS011;1474;51.460;7.150;2023-03-13T01:38:02;8.63;;;2.15;;
2928;SDS011;1474;51.460;7.150;2023-03-13T01:40:28;8.38;;;1.80;;
2928;SDS011;1474;51.460;7.150;2023-03-13T01:42:55;9.02;;;1.52;;
2928;SDS011;1474;51.460;7.150;2023-03-13T01:48:18;4.95;;;1.30;;
2928;SDS011;1474;51.460;7.150;2023-03-13T01:50:46;5.78;;;1.17;;
2928;SDS011;1474;51.460;7.150;2023-03-13T01:53:12;7.47;;;2.08;;
2928;SDS011;1474;51.460;7.150;2023-03-13T01:55:37;7.55;;;1.85;;
2928;SDS011;1474;51.460;7.150;2023-03-13T01:58:03;6.05;;;2.13;;
2928;SDS011;1474;51.460;7.150;2023-03-13T02:00:30;11.27;;;2.20;;
2928;SDS011;1474;51.460;7.150;2023-03-13T02:03:00;11.57;;;2.33;;
2928;SDS011;1474;51.460;7.150;2023-03-13T02:05:32;7.32;;;2.30;;
2928;SDS011;1474;51.460;7.150;2023-03-13T02:08:00;6.57;;;1.55;;
2928;SDS011;1474;51.460;7.150;2023-03-13T02:10:31;2.55;;;1.05;;
2928;SDS011;1474;51.460;7.150;2023-03-13T02:13:01;8.50;;;2.22;;
2928;SDS011;1474;51.460;7.150;2023-03-13T02:15:27;10.75;;;2.92;;
2928;SDS011;1474;51.460;7.150;2023-03-13T02:17:54;6.47;;;1.00;;
2928;SDS011;1474;51.460;7.150;2023-03-13T02:20:21;8.48;;;2.40;;
2928;SDS011;1474;51.460;7.150;2023-03-13T02:25:42;10.68;;;2.35;;
2928;SDS011;1474;51.460;7.150;2023-03-13T02:28:12;6.53;;;2.15;;
2928;SDS011;1474;51.460;7.150;2023-03-13T02:30:42;2.60;;;1.00;;
2928;SDS011;1474;51.460;7.150;2023-03-13T02:33:10;5.63;;;1.73;;
2928;SDS011;1474;51.460;7.150;2023-03-13T02:35:36;10.45;;;2.28;;
2928;SDS011;1474;51.460;7.150;2023-03-13T02:38:04;9.27;;;3.15;;
2928;SDS011;1474;51.460;7.150;2023-03-13T02:40:34;4.13;;;1.17;;
2928;SDS011;1474;51.460;7.150;2023-03-13T02:43:04;7.13;;;1.83;;
2928;SDS011;1474;51.460;7.150;2023-03-13T02:45:35;9.50;;;1.90;;
2928;SDS011;1474;51.460;7.150;2023-03-13T02:48:01;3.95;;;1.70;;
2928;SDS011;1474;51.460;7.150;2023-03-13T02:50:26;5.72;;;2.33;;
2928;SDS011;1474;51.460;7.150;2023-03-13T02:52:54;5.70;;;1.75;;
2928;SDS011;1474;51.460;7.150;2023-03-13T02:55:35;4.85;;;1.83;;
2928;SDS011;1474;51.460;7.150;2023-03-13T02:58:05;5.43;;;1.40;;
2928;SDS011;1474;51.460;7.150;2023-03-13T03:00:31;7.00;;;2.05;;
2928;SDS011;1474;51.460;7.150;2023-03-13T03:02:56;6.65;;;1.67;;
2928;SDS011;1474;51.460;7.150;2023-03-13T03:05:22;5.93;;;1.75;;
2928;SDS011;1474;51.460;7.150;2023-03-13T03:07:48;8.30;;;2.65;;
2928;SDS011;1474;51.460;7.150;2023-03-13T03:10:15;8.15;;;1.83;;
2928;SDS011;1474;51.460;7.150;2023-03-13T03:12:41;5.22;;;1.88;;
2928;SDS011;1474;51.460;7.150;2023-03-13T03:15:07;7.30;;;2.30;;
2928;SDS011;1474;51.460;7.150;2023-03-13T03:17:33;7.47;;;1.63;;
2928;SDS011;1474;51.460;7.150;2023-03-13T03:19:58;6.30;;;1.67;;
2928;SDS011;1474;51.460;7.150;2023-03-13T03:22:24;6.50;;;1.65;;
2928;SDS011;1474;51.460;7.150;2023-03-13T03:24:50;3.08;;;1.27;;
2928;SDS011;1474;51.460;7.150;2023-03-13T03:27:16;3.78;;;1.77;;
2928;SDS011;1474;51.460;7.150;2023-03-13T03:29:41;6.32;;;2.25;;
2928;SDS011;1474;51.460;7.150;2023-03-13T03:32:07;4.07;;;1.50;;
2928;SDS011;1474;51.460;7.150;2023-03-13T03:34:32;4.68;;;1.50;;
2928;SDS011;1474;51.460;7.150;2023-03-13T03:36:58;3.63;;;1.77;;
2928;SDS011;1474;51.460;7.150;2023-03-13T03:39:24;5.47;;;2.38;;
2928;SDS011;1474;51.460;7.150;2023-03-13T03:41:49;9.38;;;2.28;;
2928;SDS011;1474;51.460;7.150;2023-03-13T03:44:15;3.78;;;1.60;;
2928;SDS011;1474;51.460;7.150;2023-03-13T03:46:40;8.38;;;1.63;;
2928;SDS011;1474;51.460;7.150;2023-03-13T03:49:06;6.15;;;1.40;;
2928;SDS011;1474;51.460;7.150;2023-03-13T03:51:32;5.10;;;1.52;;
2928;SDS011;1474;51.460;7.150;2023-03-13T03:53:57;4.55;;;1.63;;
2928;SDS011;1474;51.460;7.150;2023-03-13T03:56:23;4.60;;;0.93;;
2928;SDS011;1474;51.460;7.150;2023-03-13T03:58:48;2.42;;;1.05;;
2928;SDS011;1474;51.460;7.150;2023-03-13T04:01:14;2.35;;;1.20;;
2928;SDS011;1474;51.460;7.150;2023-03-13T04:03:39;8.07;;;1.38;;
2928;SDS011;1474;51.460;7.150;2023-03-13T04:06:05;4.25;;;1.02;;
2928;SDS011;1474;51.460;7.150;2023-03-13T04:08:31;1.40;;;1.08;;
2928;SDS011;1474;51.460;7.150;2023-03-13T04:10:58;2.22;;;1.60;;
2928;SDS011;1474;51.460;7.150;2023-03-13T04:13:25;4.10;;;1.40;;
2928;SDS011;1474;51.460;7.150;2023-03-13T04:15:51;1.70;;;1.10;;
2928;SDS011;1474;51.460;7.150;2023-03-13T04:18:16;2.88;;;1.35;;
2928;SDS011;1474;51.460;7.150;2023-03-13T04:20:42;2.97;;;1.20;;
2928;SDS011;1474;51.460;7.150;2023-03-13T04:23:08;2.78;;;1.30;;
2928;SDS011;1474;51.460;7.150;2023-03-13T04:25:33;1.25;;;1.13;;
2928;SDS011;1474;51.460;7.150;2023-03-13T04:28:00;1.13;;;1.00;;
2928;SDS011;1474;51.460;7.150;2023-03-13T04:30:25;6.88;;;1.45;;
2928;SDS011;1474;51.460;7.150;2023-03-13T04:32:51;0.82;;;0.80;;
2928;SDS011;1474;51.460;7.150;2023-03-13T04:35:17;3.05;;;1.35;;
2928;SDS011;1474;51.460;7.150;2023-03-13T04:37:42;3.83;;;1.58;;
2928;SDS011;1474;51.460;7.150;2023-03-13T04:40:08;3.17;;;1.25;;
2928;SDS011;1474;51.460;7.150;2023-03-13T04:42:34;2.90;;;1.75;;
2928;SDS011;1474;51.460;7.150;2023-03-13T04:45:00;1.50;;;1.23;;
2928;SDS011;1474;51.460;7.150;2023-03-13T04:47:25;4.63;;;1.65;;
2928;SDS011;1474;51.460;7.150;2023-03-13T04:49:51;2.85;;;1.60;;
2928;SDS011;1474;51.460;7.150;2023-03-13T04:52:16;3.28;;;1.58;;
2928;SDS011;1474;51.460;7.150;2023-03-13T04:54:42;2.15;;;1.60;;
2928;SDS011;1474;51.460;7.150;2023-03-13T04:57:08;1.58;;;1.30;;
2928;SDS011;1474;51.460;7.150;2023-03-13T04:59:33;4.15;;;1.52;;
2928;SDS011;1474;51.460;7.150;2023-03-13T05:01:59;3.00;;;0.95;;
2928;SDS011;1474;51.460;7.150;2023-03-13T05:04:24;2.00;;;1.25;;
2928;SDS011;1474;51.460;7.150;2023-03-13T05:06:50;1.00;;;0.90;;
2928;SDS011;1474;51.460;7.150;2023-03-13T05:09:15;1.58;;;1.20;;
2928;SDS011;1474;51.460;7.150;2023-03-13T05:11:41;1.98;;;1.00;;
2928;SDS011;1474;51.460;7.150;2023-03-13T05:14:07;1.88;;;1.00;;
2928;SDS011;1474;51.460;7.150;2023-03-13T05:16:35;4.47;;;1.23;;
2928;SDS011;1474;51.460;7.150;2023-03-13T05:19:01;2.17;;;1.10;;
2928;SDS011;1474;51.460;7.150;2023-03-13T05:21:27;1.17;;;0.95;;
2928;SDS011;1474;51.460;7.150;2023-03-13T05:23:53;4.25;;;0.95;;
2928;SDS011;1474;51.460;7.150;2023-03-13T05:26:18;1.33;;;0.90;;
2928;SDS011;1474;51.460;7.150;2023-03-13T05:28:44;1.30;;;1.00;;
2928;SDS011;1474;51.460;7.150;2023-03-13T05:31:09;2.45;;;1.30;;
2928;SDS011;1474;51.460;7.150;2023-03-13T05:33:35;1.70;;;0.90;;
2928;SDS011;1474;51.460;7.150;2023-03-13T05:36:01;1.48;;;0.93;;
2928;SDS011;1474;51.460;7.150;2023-03-13T05:38:26;1.20;;;0.80;;
2928;SDS011;1474;51.460;7.150;2023-03-13T05:40:52;2.70;;;1.23;;
2928;SDS011;1474;51.460;7.150;2023-03-13T05:43:19;0.95;;;0.85;;
2928;SDS011;1474;51.460;7.150;2023-03-13T05:45:44;1.58;;;0.90;;
2928;SDS011;1474;51.460;7.150;2023-03-13T05:48:10;1.55;;;0.75;;
2928;SDS011;1474;51.460;7.150;2023-03-13T05:50:35;1.73;;;1.10;;
2928;SDS011;1474;51.460;7.150;2023-03-13T05:53:01;1.70;;;1.08;;
2928;SDS011;1474;51.460;7.150;2023-03-13T05:55:26;1.88;;;0.93;;
2928;SDS011;1474;51.460;7.150;2023-03-13T05:57:52;2.55;;;1.02;;
2928;SDS011;1474;51.460;7.150;2023-03-13T06:00:18;2.15;;;0.93;;
2928;SDS011;1474;51.460;7.150;2023-03-13T06:02:43;3.03;;;1.10;;
2928;SDS011;1474;51.460;7.150;2023-03-13T06:05:09;1.40;;;1.13;;
2928;SDS011;1474;51.460;7.150;2023-03-13T06:07:35;2.08;;;1.50;;
2928;SDS011;1474;51.460;7.150;2023-03-13T06:10:01;1.90;;;1.33;;
2928;SDS011;1474;51.460;7.150;2023-03-13T06:12:27;4.93;;;1.27;;
2928;SDS011;1474;51.460;7.150;2023-03-13T06:14:53;2.55;;;1.60;;
2928;SDS011;1474;51.460;7.150;2023-03-13T06:17:19;1.60;;;1.45;;
2928;SDS011;1474;51.460;7.150;2023-03-13T06:19:45;2.28;;;1.63;;
2928;SDS011;1474;51.460;7.150;2023-03-13T06:22:11;2.75;;;1.33;;
2928;SDS011;1474;51.460;7.150;2023-03-13T06:24:37;1.55;;;1.27;;
2928;SDS011;1474;51.460;7.150;2023-03-13T06:27:02;2.08;;;1.20;;
2928;SDS011;1474;51.460;7.150;2023-03-13T06:29:28;3.38;;;1.13;;
2928;SDS011;1474;51.460;7.150;2023-03-13T06:31:54;2.90;;;1.40;;
2928;SDS011;1474;51.460;7.150;2023-03-13T06:34:19;2.05;;;1.10;;
2928;SDS011;1474;51.460;7.150;2023-03-13T06:36:45;2.97;;;1.60;;
2928;SDS011;1474;51.460;7.150;2023-03-13T06:39:11;3.28;;;1.55;;
2928;SDS011;1474;51.460;7.150;2023-03-13T06:41:37;2.70;;;1.58;;
2928;SDS011;1474;51.460;7.150;2023-03-13T06:44:03;2.42;;;1.40;;
2928;SDS011;1474;51.460;7.150;2023-03-13T06:46:29;1.83;;;1.30;;
2928;SDS011;1474;51.460;7.150;2023-03-13T06:48:56;1.25;;;0.82;;
2928;SDS011;1474;51.460;7.150;2023-03-13T06:51:22;2.60;;;0.95;;
2928;SDS011;1474;51.460;7.150;2023-03-13T06:53:50;3.47;;;1.40;;
2928;SDS011;1474;51.460;7.150;2023-03-13T06:56:16;4.18;;;1.17;;
2928;SDS011;1474;51.460;7.150;2023-03-13T06:58:42;1.23;;;0.85;;
2928;SDS011;1474;51.460;7.150;2023-03-13T07:01:11;2.13;;;1.10;;
2928;SDS011;1474;51.460;7.150;2023-03-13T07:03:38;1.25;;;1.00;;
2928;SDS011;1474;51.460;7.150;2023-03-13T07:06:05;1.40;;;1.05;;
2928;SDS011;1474;51.460;7.150;2023-03-13T07:08:32;2.13;;;1.08;;
2928;SDS011;1474;51.460;7.150;2023-03-13T07:10:59;1.35;;;1.13;;
2928;SDS011;1474;51.460;7.150;2023-03-13T07:13:27;1.38;;;0.90;;
2928;SDS011;1474;51.460;7.150;2023-03-13T07:15:53;2.72;;;1.08;;
2928;SDS011;1474;51.460;7.150;2023-03-13T07:18:20;2.03;;;0.98;;
2928;SDS011;1474;51.460;7.150;2023-03-13T07:20:53;2.50;;;1.05;;
2928;SDS011;1474;51.460;7.150;2023-03-13T07:23:19;2.42;;;0.98;;
2928;SDS011;1474;51.460;7.150;2023-03-13T07:25:52;2.42;;;1.40;;
2928;SDS011;1474;51.460;7.150;2023-03-13T07:28:19;3.63;;;1.20;;
2928;SDS011;1474;51.460;7.150;2023-03-13T07:30:45;2.15;;;1.38;;
2928;SDS011;1474;51.460;7.150;2023-03-13T07:33:11;2.30;;;1.25;;
2928;SDS011;1474;51.460;7.150;2023-03-13T07:35:37;1.30;;;1.17;;
2928;SDS011;1474;51.460;7.150;2023-03-13T07:38:02;1.50;;;1.20;;
2928;SDS011;1474;51.460;7.150;2023-03-13T07:40:28;3.67;;;1.80;;
2928;SDS011;1474;51.460;7.150;2023-03-13T07:42:53;2.97;;;1.35;;
2928;SDS011;1474;51.460;7.150;2023-03-13T07:45:19;2.90;;;2.00;;
2928;SDS011;1474;51.460;7.150;2023-03-13T07:47:44;2.47;;;1.35;;
2928;SDS011;1474;51.460;7.150;2023-03-13T07:50:10;1.60;;;1.13;;
2928;SDS011;1474;51.460;7.150;2023-03-13T07:52:36;1.80;;;1.30;;
2928;SDS011;1474;51.460;7.150;2023-03-13T07:55:01;2.45;;;1.30;;
2928;SDS011;1474;51.460;7.150;2023-03-13T07:57:27;2.78;;;1.45;;
2928;SDS011;1474;51.460;7.150;2023-03-13T07:59:52;5.38;;;1.60;;
2928;SDS011;1474;51.460;7.150;2023-03-13T08:02:18;0.85;;;0.70;;
2928;SDS011;1474;51.460;7.150;2023-03-13T08:04:44;1.67;;;1.00;;
2928;SDS011;1474;51.460;7.150;2023-03-13T08:07:09;3.03;;;1.67;;
2928;SDS011;1474;51.460;7.150;2023-03-13T08:09:36;2.40;;;1.40;;
2928;SDS011;1474;51.460;7.150;2023-03-13T08:12:01;1.70;;;1.23;;
2928;SDS011;1474;51.460;7.150;2023-03-13T08:14:28;2.47;;;1.73;;
2928;SDS011;1474;51.460;7.150;2023-03-13T08:16:53;1.98;;;1.23;;
2928;SDS011;1474;51.460;7.150;2023-03-13T08:19:19;2.58;;;1.27;;
2928;SDS011;1474;51.460;7.150;2023-03-13T08:21:44;2.88;;;1.17;;
2928;SDS011;1474;51.460;7.150;2023-03-13T08:24:10;1.63;;;1.08;;
2928;SDS011;1474;51.460;7.150;2023-03-13T08:26:37;3.35;;;1.05;;
2928;SDS011;1474;51.460;7.150;2023-03-13T08:29:13;5.75;;;1.20;;
2928;SDS011;1474;51.460;7.150;2023-03-13T08:31:45;1.98;;;1.38;;
2928;SDS011;1474;51.460;7.150;2023-03-13T08:34:13;3.17;;;1.20;;
2928;SDS011;1474;51.460;7.150;2023-03-13T08:36:40;2.63;;;1.45;;
2928;SDS011;1474;51.460;7.150;2023-03-13T08:39:08;4.47;;;1.20;;
2928;SDS011;1474;51.460;7.150;2023-03-13T08:41:37;4.28;;;1.80;;
2928;SDS011;1474;51.460;7.150;2023-03-13T08:44:04;1.65;;;1.15;;
2928;SDS011;1474;51.460;7.150;2023-03-13T08:46:32;6.53;;;2.08;;
2928;SDS011;1474;51.460;7.150;2023-03-13T08:48:59;3.70;;;1.83;;
2928;SDS011;1474;51.460;7.150;2023-03-13T08:51:25;1.50;;;1.05;;
2928;SDS011;1474;51.460;7.150;2023-03-13T08:53:52;3.65;;;1.90;;
2928;SDS011;1474;51.460;7.150;2023-03-13T08:56:20;3.53;;;1.20;;
2928;SDS011;1474;51.460;7.150;2023-03-13T08:58:50;5.68;;;1.88;;
2928;SDS011;1474;51.460;7.150;2023-03-13T09:01:17;5.43;;;1.63;;
2928;SDS011;1474;51.460;7.150;2023-03-13T09:03:44;1.80;;;1.23;;
2928;SDS011;1474;51.460;7.150;2023-03-13T09:06:09;4.30;;;1.23;;
2928;SDS011;1474;51.460;7.150;2023-03-13T09:08:36;2.78;;;1.38;;
2928;SDS011;1474;51.460;7.150;2023-03-13T09:11:03;5.03;;;1.45;;
2928;SDS011;1474;51.460;7.150;2023-03-13T09:13:32;4.18;;;1.02;;
2928;SDS011;1474;51.460;7.150;2023-03-13T09:16:00;2.75;;;1.30;;
2928;SDS011;1474;51.460;7.150;2023-03-13T09:18:30;2.53;;;1.30;;
2928;SDS011;1474;51.460;7.150;2023-03-13T09:20:56;7.05;;;1.80;;
2928;SDS011;1474;51.460;7.150;2023-03-13T09:23:22;4.85;;;1.70;;
2928;SDS011;1474;51.460;7.150;2023-03-13T09:25:51;1.48;;;1.08;;
2928;SDS011;1474;51.460;7.150;2023-03-13T09:28:18;1.80;;;1.35;;
2928;SDS011;1474;51.460;7.150;2023-03-13T09:30:44;4.05;;;1.50;;
2928;SDS011;1474;51.460;7.150;2023-03-13T09:33:09;1.63;;;0.95;;
2928;SDS011;1474;51.460;7.150;2023-03-13T09:35:37;2.00;;;1.17;;
2928;SDS011;1474;51.460;7.150;2023-03-13T09:38:03;1.25;;;1.10;;
2928;SDS011;1474;51.460;7.150;2023-03-13T09:40:29;2.80;;;1.27;;
2928;SDS011;1474;51.460;7.150;2023-03-13T09:43:01;3.13;;;1.75;;
2928;SDS011;1474;51.460;7.150;2023-03-13T09:48:44;2.60;;;1.40;;
2928;SDS011;1474;51.460;7.150;2023-03-13T09:50:45;1.10;;;0.90;;
2928;SDS011;1474;51.460;7.150;2023-03-13T09:53:19;1.60;;;1.17;;
2928;SDS011;1474;51.460;7.150;2023-03-13T09:55:55;3.90;;;1.67;;
2928;SDS011;1474;51.460;7.150;2023-03-13T09:58:22;4.75;;;1.67;;
2928;SDS011;1474;51.460;7.150;2023-03-13T10:00:56;5.55;;;1.90;;
2928;SDS011;1474;51.460;7.150;2023-03-13T10:03:29;9.02;;;1.88;;
2928;SDS011;1474;51.460;7.150;2023-03-13T10:06:20;4.63;;;1.38;;
2928;SDS011;1474;51.460;7.150;2023-03-13T10:08:48;2.08;;;1.13;;
2928;SDS011;1474;51.460;7.150;2023-03-13T10:11:27;6.22;;;2.00;;
2928;SDS011;1474;51.460;7.150;2023-03-13T10:14:35;4.88;;;1.60;;
2928;SDS011;1474;51.460;7.150;2023-03-13T10:17:17;1.55;;;1.05;;
2928;SDS011;1474;51.460;7.150;2023-03-13T10:22:49;5.05;;;1.85;;
2928;SDS011;1474;51.460;7.150;2023-03-13T10:27:59;3.22;;;1.40;;
2928;SDS011;1474;51.460;7.150;2023-03-13T10:30:32;2.38;;;1.17;;
2928;SDS011;1474;51.460;7.150;2023-03-13T10:35:40;2.35;;;1.13;;
2928;SDS011;1474;51.460;7.150;2023-03-13T10:38:11;2.95;;;1.45;;
2928;SDS011;1474;51.460;7.150;2023-03-13T10:40:39;3.58;;;1.27;;
2928;SDS011;1474;51.460;7.150;2023-03-13T10:43:12;2.53;;;1.10;;
2928;SDS011;1474;51.460;7.150;2023-03-13T10:45:42;2.40;;;0.82;;
2928;SDS011;1474;51.460;7.150;2023-03-13T10:48:12;5.60;;;1.55;;
2928;SDS011;1474;51.460;7.150;2023-03-13T10:50:43;4.57;;;1.55;;
2928;SDS011;1474;51.460;7.150;2023-03-13T10:55:54;2.92;;;1.13;;
2928;SDS011;1474;51.460;7.150;2023-03-13T10:58:26;4.53;;;1.30;;
2928;SDS011;1474;51.460;7.150;2023-03-13T11:01:24;4.72;;;1.10;;
2928;SDS011;1474;51.460;7.150;2023-03-13T11:03:51;1.20;;;0.93;;
2928;SDS011;1474;51.460;7.150;2023-03-13T11:08:59;1.75;;;0.88;;
2928;SDS011;1474;51.460;7.150;2023-03-13T11:14:11;2.47;;;0.95;;
2928;SDS011;1474;51.460;7.150;2023-03-13T11:16:42;2.13;;;1.05;;
2928;SDS011;1474;51.460;7.150;2023-03-13T11:24:49;1.35;;;0.82;;
2928;SDS011;1474;51.460;7.150;2023-03-13T11:27:28;1.17;;;0.70;;
2928;SDS011;1474;51.460;7.150;2023-03-13T11:30:07;0.95;;;0.80;;
2928;SDS011;1474;51.460;7.150;2023-03-13T11:35:31;0.60;;;0.60;;
2928;SDS011;1474;51.460;7.150;2023-03-13T11:38:04;2.55;;;0.60;;
2928;SDS011;1474;51.460;7.150;2023-03-13T11:40:55;2.47;;;1.08;;
2928;SDS011;1474;51.460;7.150;2023-03-13T11:46:13;0.88;;;0.63;;
2928;SDS011;1474;51.460;7.150;2023-03-13T11:48:58;0.85;;;0.50;;
2928;SDS011;1474;51.460;7.150;2023-03-13T11:51:49;0.65;;;0.50;;
2928;SDS011;1474;51.460;7.150;2023-03-13T11:54:44;1.55;;;0.60;;
2928;SDS011;1474;51.460;7.150;2023-03-13T11:57:24;3.28;;;0.50;;
2928;SDS011;1474;51.460;7.150;2023-03-13T12:00:12;0.70;;;0.57;;
2928;SDS011;1474;51.460;7.150;2023-03-13T12:03:48;4.60;;;0.93;;
2928;SDS011;1474;51.460;7.150;2023-03-13T12:05:54;0.52;;;0.40;;
2928;SDS011;1474;51.460;7.150;2023-03-13T12:11:12;8.40;;;0.70;;
2928;SDS011;1474;51.460;7.150;2023-03-13T12:13:45;1.38;;;0.60;;
2928;SDS011;1474;51.460;7.150;2023-03-13T12:16:20;3.20;;;1.00;;
2928;SDS011;1474;51.460;7.150;2023-03-13T12:18:49;1.55;;;0.47;;
2928;SDS011;1474;51.460;7.150;2023-03-13T12:24:03;0.57;;;0.50;;
2928;SDS011;1474;51.460;7.150;2023-03-13T12:32:18;1.35;;;0.70;;
2928;SDS011;1474;51.460;7.150;2023-03-13T12:35:14;1.23;;;0.57;;
2928;SDS011;1474;51.460;7.150;2023-03-13T12:37:57;3.17;;;0.60;;
2928;SDS011;1474;51.460;7.150;2023-03-13T12:40:32;1.30;;;0.63;;
2928;SDS011;1474;51.460;7.150;2023-03-13T12:43:13;2.40;;;1.55;;
2928;SDS011;1474;51.460;7.150;2023-03-13T12:48:32;0.75;;;0.35;;
2928;SDS011;1474;51.460;7.150;2023-03-13T12:51:14;1.15;;;0.57;;
2928;SDS011;1474;51.460;7.150;2023-03-13T12:57:08;0.43;;;0.43;;
2928;SDS011;1474;51.460;7.150;2023-03-13T12:59:55;0.35;;;0.35;;
2928;SDS011;1474;51.460;7.150;2023-03-13T13:02:27;1.08;;;0.52;;
2928;SDS011;1474;51.460;7.150;2023-03-13T13:04:54;0.73;;;0.60;;
2928;SDS011;1474;51.460;7.150;2023-03-13T13:07:29;1.15;;;0.55;;
2928;SDS011;1474;51.460;7.150;2023-03-13T13:10:13;0.82;;;0.32;;
2928;SDS011;1474;51.460;7.150;2023-03-13T13:12:44;0.75;;;0.60;;
2928;SDS011;1474;51.460;7.150;2023-03-13T13:15:14;0.90;;;0.60;;
2928;SDS011;1474;51.460;7.150;2023-03-13T13:20:46;0.60;;;0.60;;
2928;SDS011;1474;51.460;7.150;2023-03-13T13:29:03;0.85;;;0.57;;
2928;SDS011;1474;51.460;7.150;2023-03-13T13:39:29;0.85;;;0.47;;
2928;SDS011;1474;51.460;7.150;2023-03-13T13:47:28;0.50;;;0.40;;
2928;SDS011;1474;51.460;7.150;2023-03-13T13:49:56;2.13;;;0.88;;
2928;SDS011;1474;51.460;7.150;2023-03-13T13:55:02;3.08;;;0.60;;
2928;SDS011;1474;51.460;7.150;2023-03-13T13:57:49;2.42;;;0.90;;
2928;SDS011;1474;51.460;7.150;2023-03-13T14:00:26;0.52;;;0.40;;
2928;SDS011;1474;51.460;7.150;2023-03-13T14:02:58;0.73;;;0.45;;
2928;SDS011;1474;51.460;7.150;2023-03-13T14:05:25;1.10;;;0.50;;
2928;SDS011;1474;51.460;7.150;2023-03-13T14:10:53;1.25;;;0.60;;
2928;SDS011;1474;51.460;7.150;2023-03-13T14:13:22;2.85;;;0.55;;
2928;SDS011;1474;51.460;7.150;2023-03-13T14:15:49;7.20;;;1.08;;
2928;SDS011;1474;51.460;7.150;2023-03-13T14:20:56;1.30;;;0.50;;
2928;SDS011;1474;51.460;7.150;2023-03-13T14:23:41;4.22;;;0.70;;
2928;SDS011;1474;51.460;7.150;2023-03-13T14:28:46;0.82;;;0.57;;
2928;SDS011;1474;51.460;7.150;2023-03-13T14:31:23;3.20;;;0.70;;
2928;SDS011;1474;51.460;7.150;2023-03-13T14:33:53;1.17;;;0.90;;
2928;SDS011;1474;51.460;7.150;2023-03-13T14:36:20;1.48;;;0.70;;
2928;SDS011;1474;51.460;7.150;2023-03-13T14:38:56;1.75;;;0.82;;
2928;SDS011;1474;51.460;7.150;2023-03-13T14:43:48;2.13;;;1.65;;
2928;SDS011;1474;51.460;7.150;2023-03-13T14:46:30;3.03;;;0.70;;
2928;SDS011;1474;51.460;7.150;2023-03-13T14:49:12;1.98;;;0.68;;
2928;SDS011;1474;51.460;7.150;2023-03-13T14:51:55;1.52;;;0.70;;
2928;SDS011;1474;51.460;7.150;2023-03-13T14:54:25;2.53;;;0.50;;
2928;SDS011;1474;51.460;7.150;2023-03-13T14:57:40;1.73;;;0.50;;
2928;SDS011;1474;51.460;7.150;2023-03-13T14:59:49;1.00;;;0.52;;
2928;SDS011;1474;51.460;7.150;2023-03-13T15:02:19;1.17;;;0.52;;
2928;SDS011;1474;51.460;7.150;2023-03-13T15:04:52;1.42;;;0.60;;
2928;SDS011;1474;51.460;7.150;2023-03-13T15:07:20;0.85;;;0.60;;
2928;SDS011;1474;51.460;7.150;2023-03-13T15:09:46;0.85;;;0.68;;
2928;SDS011;1474;51.460;7.150;2023-03-13T15:12:15;0.85;;;0.60;;
2928;SDS011;1474;51.460;7.150;2023-03-13T15:14:43;1.35;;;0.60;;
2928;SDS011;1474;51.460;7.150;2023-03-13T15:17:18;0.85;;;0.60;;
2928;SDS011;1474;51.460;7.150;2023-03-13T15:19:49;3.53;;;0.80;;
2928;SDS011;1474;51.460;7.150;2023-03-13T15:24:59;0.60;;;0.50;;
2928;SDS011;1474;51.460;7.150;2023-03-13T15:27:25;1.10;;;0.57;;
2928;SDS011;1474;51.460;7.150;2023-03-13T15:29:51;1.63;;;0.80;;
2928;SDS011;1474;51.460;7.150;2023-03-13T15:34:50;0.73;;;0.50;;
2928;SDS011;1474;51.460;7.150;2023-03-13T15:37:16;1.88;;;1.33;;
2928;SDS011;1474;51.460;7.150;2023-03-13T15:39:43;1.50;;;0.60;;
2928;SDS011;1474;51.460;7.150;2023-03-13T15:42:09;0.68;;;0.40;;
2928;SDS011;1474;51.460;7.150;2023-03-13T15:44:34;1.23;;;0.52;;
2928;SDS011;1474;51.460;7.150;2023-03-13T15:47:00;1.10;;;0.63;;
2928;SDS011;1474;51.460;7.150;2023-03-13T15:49:26;2.55;;;0.85;;
2928;SDS011;1474;51.460;7.150;2023-03-13T15:51:52;2.05;;;0.70;;
2928;SDS011;1474;51.460;7.150;2023-03-13T15:54:17;3.55;;;0.55;;
2928;SDS011;1474;51.460;7.150;2023-03-13T15:56:43;0.50;;;0.35;;
2928;SDS011;1474;51.460;7.150;2023-03-13T15:59:13;2.50;;;0.95;;
2928;SDS011;1474;51.460;7.150;2023-03-13T16:01:40;1.70;;;0.60;;
2928;SDS011;1474;51.460;7.150;2023-03-13T16:04:09;1.75;;;0.60;;
2928;SDS011;1474;51.460;7.150;2023-03-13T16:06:35;0.73;;;0.50;;
2928;SDS011;1474;51.460;7.150;2023-03-13T16:09:02;1.10;;;0.70;;
2928;SDS011;1474;51.460;7.150;2023-03-13T16:11:29;1.45;;;0.50;;
2928;SDS011;1474;51.460;7.150;2023-03-13T16:13:55;1.02;;;0.80;;
2928;SDS011;1474;51.460;7.150;2023-03-13T16:18:52;2.42;;;0.70;;
2928;SDS011;1474;51.460;7.150;2023-03-13T16:21:23;0.98;;;0.57;;
2928;SDS011;1474;51.460;7.150;2023-03-13T16:23:50;1.20;;;0.80;;
2928;SDS011;1474;51.460;7.150;2023-03-13T16:26:16;1.58;;;0.60;;
2928;SDS011;1474;51.460;7.150;2023-03-13T16:28:45;0.93;;;0.65;;
2928;SDS011;1474;51.460;7.150;2023-03-13T16:31:19;0.65;;;0.60;;
2928;SDS011;1474;51.460;7.150;2023-03-13T16:33:50;1.15;;;0.60;;
2928;SDS011;1474;51.460;7.150;2023-03-13T16:36:17;3.03;;;0.77;;
2928;SDS011;1474;51.460;7.150;2023-03-13T16:38:48;1.70;;;0.68;;
2928;SDS011;1474;51.460;7.150;2023-03-13T16:41:15;1.70;;;0.70;;
2928;SDS011;1474;51.460;7.150;2023-03-13T16:43:42;2.00;;;0.55;;
2928;SDS011;1474;51.460;7.150;2023-03-13T16:46:12;1.73;;;0.70;;
2928;SDS011;1474;51.460;7.150;2023-03-13T16:48:40;2.00;;;0.60;;
2928;SDS011;1474;51.460;7.150;2023-03-13T16:51:07;3.08;;;1.00;;
2928;SDS011;1474;51.460;7.150;2023-03-13T16:53:40;3.58;;;0.95;;
2928;SDS011;1474;51.460;7.150;2023-03-13T16:56:09;3.83;;;0.80;;
2928;SDS011;1474;51.460;7.150;2023-03-13T16:58:48;3.65;;;1.10;;
2928;SDS011;1474;51.460;7.150;2023-03-13T17:01:14;0.80;;;0.65;;
2928;SDS011;1474;51.460;7.150;2023-03-13T17:03:40;2.17;;;0.82;;
2928;SDS011;1474;51.460;7.150;2023-03-13T17:06:09;4.25;;;0.90;;
2928;SDS011;1474;51.460;7.150;2023-03-13T17:08:39;2.95;;;0.88;;